createdAt,value
2023-11-14T00:01:08.649Z,98161.73
2023-11-14T00:04:45.389Z,98161.34
2023-11-14T00:08:09.511Z,98158.34
2023-11-14T00:11:36.149Z,98153.48
2023-11-14T00:15:00.536Z,98148.77
2023-11-14T00:18:24.829Z,98133.99
2023-11-14T00:21:49.030Z,98128.20
2023-11-14T00:25:13.222Z,98108.44
2023-11-14T00:28:37.267Z,98092.44
2023-11-14T00:32:01.494Z,98079.84
2023-11-14T00:35:25.670Z,98072.64
2023-11-14T00:38:49.667Z,98054.46
2023-11-14T00:42:14.272Z,98047.34
2023-11-14T00:45:39.469Z,98035.55
2023-11-14T00:49:05.440Z,98030.98
2023-11-14T00:52:29.508Z,98033.70
2023-11-14T00:55:53.628Z,98033.90
2023-11-14T00:59:17.951Z,98028.19
2023-11-14T01:02:42.137Z,98026.84
2023-11-14T01:06:06.884Z,98027.69
2023-11-14T01:09:31.436Z,98031.53
2023-11-14T01:13:00.587Z,98051.18
2023-11-14T01:16:25.000Z,98036.88
2023-11-14T01:19:50.264Z,98020.19
2023-11-14T01:23:17.986Z,98028.15
2023-11-14T01:26:42.433Z,98042.52
2023-11-14T01:30:07.651Z,98040.06
2023-11-14T01:33:31.782Z,98019.31
2023-11-14T01:36:57.464Z,98011.95
2023-11-14T01:40:21.855Z,98005.48
2023-11-14T01:43:46.716Z,98006.65
2023-11-14T01:47:11.513Z,98019.31
2023-11-14T01:50:35.881Z,98035.04
2023-11-14T01:53:59.984Z,98036.23
2023-11-14T01:57:24.341Z,98029.71
2023-11-14T02:00:49.003Z,97994.65
2023-11-14T02:04:18.349Z,97995.80
2023-11-14T02:07:42.903Z,97987.30
2023-11-14T02:11:07.207Z,97968.86
2023-11-14T02:14:31.501Z,97956.29
2023-11-14T02:17:55.516Z,97951.23
2023-11-14T02:21:19.777Z,97939.81
2023-11-14T02:24:52.944Z,97934.48
2023-11-14T02:28:16.999Z,97913.73
2023-11-14T02:31:41.169Z,97908.61
2023-11-14T02:35:05.790Z,97901.97
2023-11-14T02:38:30.293Z,97914.43
2023-11-14T02:41:54.334Z,97915.29
2023-11-14T02:45:18.646Z,97893.73
2023-11-14T02:48:42.673Z,97864.83
2023-11-14T02:52:07.153Z,97833.59
2023-11-14T02:55:32.154Z,97811.75
2023-11-14T02:58:56.322Z,97757.83
2023-11-14T03:02:20.975Z,97685.09
2023-11-14T03:05:46.258Z,97681.65
2023-11-14T03:09:10.420Z,97661.73
2023-11-14T03:12:34.468Z,97649.76
2023-11-14T03:15:58.550Z,97654.52
2023-11-14T03:19:22.598Z,97669.66
2023-11-14T03:22:46.748Z,97668.73
2023-11-14T03:26:11.319Z,97659.77
2023-11-14T03:29:36.360Z,97644.76
2023-11-14T03:33:00.754Z,97647.77
2023-11-14T03:36:24.894Z,97707.54
2023-11-14T03:39:49.768Z,97777.36
2023-11-14T03:43:13.832Z,97797.12
2023-11-14T03:46:37.909Z,97788.92
2023-11-14T03:50:04.259Z,97746.70
2023-11-14T03:53:28.426Z,97725.98
2023-11-14T03:56:52.544Z,97714.20
2023-11-14T04:00:16.905Z,97708.92
2023-11-14T04:03:41.062Z,97705.09
2023-11-14T04:07:05.493Z,97705.65
2023-11-14T04:10:32.448Z,97694.63
2023-11-14T04:13:57.576Z,97695.67
2023-11-14T04:17:21.786Z,97692.85
2023-11-14T04:20:47.255Z,97692.64
2023-11-14T04:24:11.569Z,97687.14
2023-11-14T04:27:36.140Z,97688.04
2023-11-14T04:31:00.300Z,97690.98
2023-11-14T04:34:24.486Z,97694.79
2023-11-14T04:37:53.698Z,97691.98
2023-11-14T04:41:19.350Z,97687.73
2023-11-14T04:44:43.710Z,97681.73
2023-11-14T04:48:07.821Z,97672.30
2023-11-14T04:51:31.989Z,97670.90
2023-11-14T04:54:55.995Z,97672.98
2023-11-14T04:58:19.999Z,97672.21
2023-11-14T05:01:44.105Z,97668.09
2023-11-14T05:05:08.884Z,97661.76
2023-11-14T05:08:35.091Z,97654.89
2023-11-14T05:11:59.150Z,97646.67
2023-11-14T05:15:23.459Z,97641.69
2023-11-14T05:18:47.761Z,97640.08
2023-11-14T05:22:14.440Z,97641.77
2023-11-14T05:25:38.524Z,97649.20
2023-11-14T05:29:02.634Z,97666.14
2023-11-14T05:32:27.035Z,97665.34
2023-11-14T05:35:51.314Z,97663.00
2023-11-14T05:39:16.161Z,97676.95
2023-11-14T05:42:41.020Z,97675.48
2023-11-14T05:46:05.562Z,97681.51
2023-11-14T05:49:31.069Z,97683.83
2023-11-14T05:52:55.953Z,97680.45
2023-11-14T05:56:19.928Z,97689.58
2023-11-14T05:59:44.021Z,97693.25
2023-11-14T06:03:08.347Z,97702.61
2023-11-14T06:06:32.738Z,97703.96
2023-11-14T06:09:56.710Z,97711.08
2023-11-14T06:13:20.680Z,97723.48
2023-11-14T06:16:44.728Z,97727.56
2023-11-14T06:20:11.248Z,97733.02
2023-11-14T06:23:35.252Z,97744.29
2023-11-14T06:26:59.375Z,97749.08
2023-11-14T06:30:23.466Z,97760.25
2023-11-14T06:33:48.081Z,97760.37
2023-11-14T06:37:12.261Z,97771.66
2023-11-14T06:40:36.285Z,97775.23
2023-11-14T06:44:00.357Z,97782.87
2023-11-14T06:47:24.521Z,97785.66
2023-11-14T06:50:50.290Z,97786.92
2023-11-14T06:54:15.577Z,97782.34
2023-11-14T06:57:39.674Z,97794.41
2023-11-14T07:01:04.930Z,97799.98
2023-11-14T07:04:30.171Z,97793.30
2023-11-14T07:07:56.389Z,97792.94
2023-11-14T07:11:21.009Z,97790.27
2023-11-14T07:14:45.091Z,97799.19
2023-11-14T07:18:10.399Z,97808.72
2023-11-14T07:21:34.974Z,97814.50
2023-11-14T07:25:00.154Z,97816.54
2023-11-14T07:28:24.390Z,97817.08
2023-11-14T07:31:48.586Z,97820.16
2023-11-14T07:35:12.752Z,97824.86
2023-11-14T07:38:37.347Z,97825.13
2023-11-14T07:42:01.474Z,97829.91
2023-11-14T07:45:25.474Z,97833.90
2023-11-14T07:48:50.190Z,97836.34
2023-11-14T07:52:14.198Z,97836.08
2023-11-14T07:55:39.748Z,97835.30
2023-11-14T07:59:03.740Z,97828.73
2023-11-14T08:02:27.848Z,97829.50
2023-11-14T08:05:53.412Z,97831.42
2023-11-14T08:09:19.206Z,97830.98
2023-11-14T08:12:43.275Z,97837.36
2023-11-14T08:16:07.660Z,97835.86
2023-11-14T08:19:31.595Z,97843.80
2023-11-14T08:22:56.123Z,97848.55
2023-11-14T08:26:21.023Z,97851.42
2023-11-14T08:29:45.103Z,97852.64
2023-11-14T08:33:11.413Z,97847.71
2023-11-14T08:36:35.782Z,97837.60
2023-11-14T08:39:59.857Z,97846.70
2023-11-14T08:43:24.030Z,97844.44
2023-11-14T08:46:49.065Z,97841.86
2023-11-14T08:50:14.267Z,97846.42
2023-11-14T08:53:38.361Z,97845.92
2023-11-14T08:57:03.131Z,97846.31
2023-11-14T09:00:27.883Z,97848.87
2023-11-14T09:03:52.701Z,97859.21
2023-11-14T09:07:16.812Z,97868.86
2023-11-14T09:10:40.895Z,97867.52
2023-11-14T09:14:04.900Z,97871.80
2023-11-14T09:17:29.688Z,97877.02
2023-11-14T09:20:54.592Z,97875.52
2023-11-14T09:24:18.893Z,97875.40
2023-11-14T09:27:42.971Z,97864.86
2023-11-14T09:31:07.849Z,97867.95
2023-11-14T09:34:32.748Z,97872.96
2023-11-14T09:37:58.236Z,97868.27
2023-11-14T09:41:24.064Z,97870.00
2023-11-14T09:44:49.458Z,97869.31
2023-11-14T09:48:13.603Z,97865.73
2023-11-14T09:51:40.968Z,97864.18
2023-11-14T09:55:07.380Z,97871.89
2023-11-14T09:58:32.195Z,97869.97
2023-11-14T10:01:56.628Z,97865.38
2023-11-14T10:05:21.678Z,97875.27
2023-11-14T10:08:56.158Z,97876.71
2023-11-14T10:12:38.816Z,97875.16
2023-11-14T10:16:23.457Z,97879.23
2023-11-14T10:20:06.248Z,97873.63
2023-11-14T10:23:40.576Z,97873.36
2023-11-14T10:27:05.502Z,97865.33
2023-11-14T10:30:51.038Z,97865.54
2023-11-14T10:34:33.098Z,97865.17
2023-11-14T10:37:57.220Z,97867.78
2023-11-14T10:41:25.912Z,97866.65
2023-11-14T10:45:06.045Z,97864.11
2023-11-14T10:48:30.657Z,97879.44
2023-11-14T10:51:56.049Z,97885.63
2023-11-14T10:55:22.666Z,97891.10
2023-11-14T10:58:46.755Z,97883.41
2023-11-14T11:02:12.116Z,97877.02
2023-11-14T11:05:36.605Z,97880.06
2023-11-14T11:09:00.857Z,97878.28
2023-11-14T11:12:28.116Z,97874.38
2023-11-14T11:15:55.837Z,97874.86
2023-11-14T11:19:27.203Z,97875.09
2023-11-14T11:23:14.706Z,97878.22
2023-11-14T11:27:12.946Z,97866.83
2023-11-14T11:31:15.985Z,97867.04
2023-11-14T11:34:40.344Z,97867.35
2023-11-14T11:38:12.951Z,97871.30
2023-11-14T11:41:55.625Z,97872.01
2023-11-14T11:45:39.001Z,97873.63
2023-11-14T11:49:12.283Z,97878.98
2023-11-14T11:52:37.078Z,97880.05
2023-11-14T11:56:05.723Z,97879.84
2023-11-14T11:59:29.865Z,97880.54
2023-11-14T12:02:54.927Z,97885.02
2023-11-14T12:06:19.508Z,97891.09
2023-11-14T12:09:44.003Z,97893.20
2023-11-14T12:13:10.215Z,97891.09
2023-11-14T12:16:37.398Z,97895.45
2023-11-14T12:20:02.792Z,97895.52
2023-11-14T12:23:28.472Z,97898.53
2023-11-14T12:26:52.742Z,97895.89
2023-11-14T12:30:18.980Z,97900.30
2023-11-14T12:33:51.746Z,97896.86
2023-11-14T12:37:18.379Z,97893.64
2023-11-14T12:40:42.782Z,97896.55
2023-11-14T12:44:09.134Z,97902.36
2023-11-14T12:47:51.164Z,97904.68
2023-11-14T12:51:15.131Z,97903.57
2023-11-14T12:54:39.581Z,97896.84
2023-11-14T12:58:04.210Z,97888.37
2023-11-14T13:01:28.903Z,97876.16
2023-11-14T13:04:53.318Z,97885.48
2023-11-14T13:08:17.506Z,97880.21
2023-11-14T13:11:42.468Z,97885.91
2023-11-14T13:15:07.559Z,97882.98
2023-11-14T13:18:31.759Z,97883.11
2023-11-14T13:21:55.687Z,97879.02
2023-11-14T13:25:20.735Z,97879.08
2023-11-14T13:28:45.161Z,97873.70
2023-11-14T13:32:09.435Z,97872.83
2023-11-14T13:35:33.702Z,97876.08
2023-11-14T13:38:57.822Z,97872.20
2023-11-14T13:42:21.814Z,97871.95
2023-11-14T13:45:46.769Z,97880.20
2023-11-14T13:49:11.961Z,97883.89
2023-11-14T13:52:35.971Z,97890.33
2023-11-14T13:56:00.571Z,97886.97
2023-11-14T13:59:27.034Z,97891.28
2023-11-14T14:02:51.527Z,97896.23
2023-11-14T14:06:15.620Z,97900.04
2023-11-14T14:09:39.764Z,97897.73
2023-11-14T14:13:04.909Z,97899.91
2023-11-14T14:16:28.935Z,97898.73
2023-11-14T14:19:53.085Z,97893.95
2023-11-14T14:23:17.153Z,97890.32
2023-11-14T14:26:41.692Z,97887.93
2023-11-14T14:30:07.124Z,97881.73
2023-11-14T14:33:51.811Z,97882.89
2023-11-14T14:37:50.895Z,97880.61
2023-11-14T14:41:50.775Z,97885.78
2023-11-14T14:45:49.732Z,97889.05
2023-11-14T14:49:50.755Z,97892.17
2023-11-14T14:53:48.813Z,97891.88
2023-11-14T14:57:46.790Z,97890.76
2023-11-14T15:01:45.785Z,97888.09
2023-11-14T15:05:43.751Z,97887.45
2023-11-14T15:09:41.809Z,97903.58
2023-11-14T15:13:40.777Z,97900.86
2023-11-14T15:17:38.945Z,97901.59
2023-11-14T15:21:38.081Z,97903.36
2023-11-14T15:25:38.760Z,97891.90
2023-11-14T15:29:36.701Z,97888.10
2023-11-14T15:33:35.846Z,97884.94
2023-11-14T15:37:33.713Z,97888.36
2023-11-14T15:41:31.732Z,97889.60
2023-11-14T15:45:29.701Z,97886.80
2023-11-14T15:49:29.644Z,97887.75
2023-11-14T15:53:28.791Z,97894.02
2023-11-14T15:57:28.041Z,97892.94
2023-11-14T16:01:25.801Z,97900.35
2023-11-14T16:05:23.736Z,97898.06
2023-11-14T16:09:21.695Z,97900.06
2023-11-14T16:13:20.196Z,97899.27
2023-11-14T16:17:19.669Z,97892.59
2023-11-14T16:21:17.700Z,97893.10
2023-11-14T16:25:15.672Z,97893.33
2023-11-14T16:29:13.693Z,97888.90
2023-11-14T16:33:11.711Z,97890.02
2023-11-14T16:37:09.655Z,97893.59
2023-11-14T16:41:07.756Z,97894.20
2023-11-14T16:45:05.661Z,97892.27
2023-11-14T16:49:04.654Z,97897.31
2023-11-14T16:53:02.833Z,97894.77
2023-11-14T16:57:01.667Z,97893.73
2023-11-14T17:00:59.698Z,97886.59
2023-11-14T17:04:57.641Z,97883.67
2023-11-14T17:08:55.785Z,97882.42
2023-11-14T17:12:53.589Z,97891.38
2023-11-14T17:16:51.727Z,97891.77
2023-11-14T17:20:49.610Z,97889.84
2023-11-14T17:24:47.624Z,97878.11
2023-11-14T17:28:47.699Z,97885.21
2023-11-14T17:32:46.770Z,97887.56
2023-11-14T17:36:44.568Z,97888.84
2023-11-14T17:40:42.565Z,97890.54
2023-11-14T17:44:40.709Z,97887.98
2023-11-14T17:48:39.670Z,97893.58
2023-11-14T17:52:38.635Z,97898.05
2023-11-14T17:56:36.624Z,97891.21
2023-11-14T18:00:34.904Z,97887.36
2023-11-14T18:04:32.683Z,97881.40
2023-11-14T18:08:30.634Z,97880.54
2023-11-14T18:12:29.598Z,97867.55
2023-11-14T18:16:28.650Z,97865.20
2023-11-14T18:20:27.617Z,97861.30
2023-11-14T18:24:27.512Z,97872.25
2023-11-14T18:28:25.564Z,97863.77
2023-11-14T18:32:23.687Z,97868.94
2023-11-14T18:36:21.522Z,97866.20
2023-11-14T18:40:21.570Z,97867.00
2023-11-14T18:44:21.569Z,97863.20
2023-11-14T18:48:20.528Z,97860.20
2023-11-14T18:52:18.556Z,97861.13
2023-11-14T18:56:16.668Z,97857.05
2023-11-14T19:00:14.538Z,97854.05
2023-11-14T19:04:12.590Z,97856.62
2023-11-14T19:08:11.548Z,97860.82
2023-11-14T19:12:10.483Z,97859.00
2023-11-14T19:16:11.511Z,97862.58
2023-11-14T19:20:11.580Z,97867.59
2023-11-14T19:24:10.582Z,97868.69
2023-11-14T19:28:08.545Z,97865.15
2023-11-14T19:32:06.490Z,97859.36
2023-11-14T19:36:05.470Z,97858.17
2023-11-14T19:40:04.585Z,97865.12
2023-11-14T19:44:02.489Z,97856.02
2023-11-14T19:48:00.611Z,97853.39
2023-11-14T19:51:59.968Z,97848.11
2023-11-14T19:55:58.409Z,97843.80
2023-11-14T19:59:56.405Z,97842.58
2023-11-14T20:04:03.475Z,97840.08
2023-11-14T20:08:01.481Z,97846.16
2023-11-14T20:12:00.578Z,97845.52
2023-11-14T20:15:58.468Z,97850.92
2023-11-14T20:19:56.413Z,97847.70
2023-11-14T20:23:54.409Z,97842.33
2023-11-14T20:27:56.472Z,97838.95
2023-11-14T20:31:54.386Z,97842.99
2023-11-14T20:35:52.437Z,97838.84
2023-11-14T20:39:50.379Z,97839.59
2023-11-14T20:43:48.452Z,97841.64
2023-11-14T20:47:46.427Z,97838.96
2023-11-14T20:51:44.380Z,97834.81
2023-11-14T20:55:42.373Z,97833.65
2023-11-14T20:59:40.378Z,97834.23
2023-11-14T21:03:38.384Z,97835.66
2023-11-14T21:07:36.342Z,97836.38
2023-11-14T21:11:34.442Z,97833.02
2023-11-14T21:15:32.471Z,97831.86
2023-11-14T21:19:30.360Z,97833.87
2023-11-14T21:23:28.594Z,97827.91
2023-11-14T21:27:31.507Z,97822.90
2023-11-14T21:31:38.017Z,97821.23
2023-11-14T21:35:36.331Z,97826.70
2023-11-14T21:39:35.339Z,97828.91
2023-11-14T21:43:33.403Z,97829.26
2023-11-14T21:47:31.392Z,97828.50
2023-11-14T21:51:31.335Z,97824.29
2023-11-14T21:55:30.345Z,97821.09
2023-11-14T21:59:28.319Z,97822.54
2023-11-14T22:03:26.373Z,97817.75
2023-11-14T22:07:24.270Z,97818.00
2023-11-14T22:11:22.410Z,97824.02
2023-11-14T22:15:20.290Z,97818.84
2023-11-14T22:19:18.285Z,97826.60
2023-11-14T22:23:16.304Z,97824.70
2023-11-14T22:27:14.341Z,97821.87
2023-11-14T22:31:12.245Z,97825.71
2023-11-14T22:35:10.313Z,97827.37
2023-11-14T22:39:08.219Z,97824.84
2023-11-14T22:43:06.239Z,97820.40
2023-11-14T22:47:04.244Z,97814.83
2023-11-14T22:51:02.292Z,97812.05
2023-11-14T22:55:03.144Z,97807.89
2023-11-14T22:59:02.263Z,97800.68
2023-11-14T23:05:18.306Z,97789.34
2023-11-14T23:09:22.215Z,97792.58
2023-11-14T23:13:22.266Z,97793.73
2023-11-14T23:17:21.249Z,97795.98
2023-11-14T23:21:21.218Z,97794.63
2023-11-14T23:25:19.214Z,97795.46
2023-11-14T23:29:17.235Z,97791.75
2023-11-14T23:33:15.252Z,97786.48
2023-11-14T23:37:13.294Z,97780.64
2023-11-14T23:41:11.182Z,97779.89
2023-11-14T23:45:09.188Z,97776.39
2023-11-14T23:49:07.207Z,97772.00
2023-11-14T23:53:05.217Z,97773.96
2023-11-14T23:57:04.179Z,97774.36
